Langley Air Force Base Hampton US
ICAO: KLFI
IATA: LFI
Category: Large
Scheduled Services: No

Elevation: 11 ft
TransAlt. 18000 ft.

Airport Communications:
NORFOLK APP/DEP:124.9
ATIS:27.01
CLNC DEL:118.85
GND:121.7
NASA OPS:123.375
PMSV METRO:23.98
CNSOLIDATED CMD POST:25.125
PTD:141.75
TWR:125

KLFI Zoom In..

If you have problems with the map follow the link
https://www.worldairports.se/pages/airport.php?
ICAO=KLFI

Runways:

(A) RW 08 length 10002 ft width 150 ft
ILS 109.90 / hdg 78

(B) RW 26 length 10002 ft width 150 ft
ILS 109.90 / hdg 258

Location; KLFI
Day. 20 / Time. 09.56 Zulu
* Altimeter: 30.21
* Temperature: -02° c. -28.4°f.
* Wind from: 310° Speed 15 kn with Gusts up to 24 kn.
Dewpoint: -11° c.
Visibility: 10 Statute Miles.
Clouds: Clear (automated report).

KLFI 200956Z 31015G24KT 10SM CLR M02/M11 A3021 RMK AO2A SLP237 T10241107 $


Wind From 310°
Speed 15 kn.

 
 
jpsmedia worldairports.se 2020   terms of use